Search for airport 
image banner adimage banner adimage banner ad
image banner ad

25NV - Parker Carson

Located in Carson City, United States

ICAO - 25NV, IATA -

Data provided by Airmate  

General information

Coordinates: N39°12'6" W119°41'0"
Elevation is 4939 feet MSL.
Magnetic variation is 16° East
View others Airports in Nevada

Operational data

Special qualification required
Current time UTC:
Current local time:
Weather at : KCXP - Carson ( 4 km )
METAR: KCXP 131055Z AUTO 31004KT 10SM CLR 13/03 A3002 RMK AO2
TAF: KCXP 130530Z 1306/1406 VRB04KT P6SM FEW250 FM131500 21007KT P6SM FEW200 FM132100 25013G22KT P6SM FEW090 FM140300 22010KT P6SM FEW250
View NOTAMs / SUP AIP / TFR affecting this airport [VIEW]
Communications frequencies: [VIEW]

Runways:

RWY identifierQFULength (ft)Width (ft)SurfaceLDA (ft)
0660°81540GRAVEL
24240°81540GRAVEL

Airport contact information

Address: Carson City United States

Satellite view of 25NV